Weather at Portland Hillsboro Airport

Public forecast

Using degrees Fahrenheit for public forecast. Weather courtesy of forecast.io.

Current aviation weather report (METAR) for Portland Hillsboro Airport

Retrieved 2021/05/18 16:53 UTC (39 minutes ago):

KHIO 181653Z 24006KT 10SM BKN050 OVC060 12/06 A3019 RMK AO2 SLP222 T01220056

Aviation forecast (TAF) for Portland Hillsboro Airport

Retrieved 2021/05/18 12:40 UTC (5 hours ago):

TAF KHIO 181138Z 1812/1912 20007KT P6SM VCSH SCT035 BKN070 FM181900 26006KT P6SM VCSH BKN070 FM190000 31008KT P6SM BKN070 FM190500 31004KT P6SM BKN070